Strona główna
METAR-TAF:

METAR-TAF

Lotnisko :

Port lotniczy Mauritius

Mauritius, Mauritius

Szerokość geograficzna: 20-26S, Długość geograficzna: 057-40E, wysokość: 55 m

Aktualna obserwacja pogody

Raport powstał 50 minut temu, godzina 21:00 UTC
Wiatr 8 kt od wschodnio-południowy wschód
Temperatura 21°C
Wilgotność 64%
Ciśnienie 1024 hPa
Widzialność 10 km lub więcej
Przerywane chmury na wysokości 1600 ft

METAR: FIMP 052100Z 11008KT 9999 BKN016 21/14 Q1024

czas: 01:50 (21:50 UTC)

Prognoza

Raport powstał 4 godziny i 45 minut temu, godzina 17:05 UTC
Prognoza ważna od 05 godzina 18 UTC do 07 godzina 00 UTC
Wiatr 12 kt od wschodnio-południowy wschód w porywach dochodzący do 25 kt
Widzialność 10 km lub więcej
Rozproszone chmury na wysokości 1700 ft
Prawdopodobieństwo 30% :
Przejściowo
od 06 godzina 00 UTC do 06 godzina 04 UTC
Widzialność: 7000 m
Przerywane chmury na wysokości 1600 ft
słaby przelotny opad deszczu

TAF: FIMP 051705Z 0518/0700 12012G25KT 9999 SCT017 PROB30 TEMPO 0600/0604 7000 -SHRA BKN016

Obserwacja i prognoza pogody dla ponad 4000 lotnisk (raport METAR i TAF).

Dostępne stacje oznaczono żółtymi i czerwonymi punktami na mapie.

Najedź kursorem aby zobaczyć nazwę stacji.

Kliknij aby zobaczyć obserwacje i prognozy pogody.

Aby zmienić mapę: kliknij na zielony przycisk z czarnym krzyżykiem, aby powiększyć; na zielony przycisk z myślnikiem, aby pomniejszyć; na zielone strzałki, aby przejść do map sąsiednich.


METAR-TAF: